Bass, Arkansas
Current Conditions -  °F | °C
As of 7:53 AM on Thursday 23 Oct 2014 (Local Time) from KHRO Reporting Station
Clear Clear  
Wind Chill: 45°   Ceiling: Unl
Heat Index: 48°   Visibility: 10mi
Dew Point: 47°   Wind: 7mph
Humidity: 96%   Direction: 150°SSE
Pressure: 30.18"   Gusts: NA
Location:  35.9°N, 93°W
Report Text: KHRO 231253Z AUTO 15006KT 10SM CLR 09/08 A3018 RMK AO2 SLP220 T00890083
Loading
Personal Weather Stations






























Interactive Weather Map New forecast layout! Learn more

10-Day Weather Forecast

Advertisements
Track Severe Weather on mobile